Huvudsida
METAR-TAF:

METAR-TAF

Flygplatser :

Kuwaits internationella flygplats

Kuwait, Kuwait

latitud: 29-13N, longitud: 047-59E, höjd: 55 m

Aktuellt väderrapport

Denna rapport gjordes för 23 minuter sedan, klockan 10:00 UTC
Vind 16 kt från nord
Temperatur 46°C
Fuktighet 9%
Tryck 994 hPa
Sikt 10 km eller mer
Inga moln under 1 500 m eller inga cumulonimbus

METAR: OKBK 041000Z 35016KT CAVOK 46/06 Q0994 NOSIG

Tid: 13:23 (10:23 UTC)

Väderprognos

Denna rapport gjordes för 5 timmar och 38 minuter sedan, klockan 04:45 UTC
Prognos gäller från 04 kl. 06 UTC till 05 kl. 12 UTC
Vind 10 kt från nord/nordväst i byarna ända upp till 20 kt
Sikt: 7000 m

TAF: OKBK 040445Z 0406/0512 34010G20KT 7000 NSC

Aktuella väderrapporter och prognoser från 4000 flygplatser (METAR- och TAF-rapporter).

De tillgängliga stationerna syns som gula och röda prickar på kartan.

För musen över prickarna för att se namnen på stationerna.

Klicka sedan för att få väderrapporter och prognoser.

För att ändra kartan: Klicka på de gröna knapparna med ett svart kors på för att zooma in; den gröna knappen med ett streck på för att zooma ut; eller på de gröna pilarna för angränsande kartor.


METAR-TAF: